Terminal Aerodrome Forecast
Issued by NWS Upton, NY

Home | Current Version | Previous Version | Text Only | Print | Product List | Glossary On
Versions: 1 2 3 4 5 6 7 8 9 10 11 12 13 14 15 16 17 18 19 20 21 22 23 24 25
489
FTUS41 KOKX 122036 AAA
TAFBDR
TAF AMD
KBDR 122036Z 1221/1318 22008KT P6SM SCT100 BKN250
     FM130000 25005KT P6SM BKN060
     FM130700 27007KT P6SM SCT025 BKN040 PROB30 1307/1310 2SM -SN
      BKN025
     FM131000 29012G20KT P6SM SCT040 BKN080
     FM131300 31022G31KT P6SM SCT050=

USA.gov is the U.S. government's official web portal to all federal, state and local government web resources and services.